sensor_id;sensor_type;location;lat;lon;timestamp;P1;durP1;ratioP1;P2;durP2;ratioP2
11837;SDS011;5978;51.020;6.764;2022-07-18T00:02:23;4.20;;;3.00;;
11837;SDS011;5978;51.020;6.764;2022-07-18T00:04:52;5.83;;;2.70;;
11837;SDS011;5978;51.020;6.764;2022-07-18T00:07:21;3.90;;;2.40;;
11837;SDS011;5978;51.020;6.764;2022-07-18T00:09:50;6.47;;;3.23;;
11837;SDS011;5978;51.020;6.764;2022-07-18T00:12:16;6.03;;;2.60;;
11837;SDS011;5978;51.020;6.764;2022-07-18T00:14:43;10.33;;;2.60;;
11837;SDS011;5978;51.020;6.764;2022-07-18T00:17:12;4.27;;;2.40;;
11837;SDS011;5978;51.020;6.764;2022-07-18T00:19:39;6.23;;;2.50;;
11837;SDS011;5978;51.020;6.764;2022-07-18T00:22:05;5.93;;;3.40;;
11837;SDS011;5978;51.020;6.764;2022-07-18T00:24:34;5.00;;;3.17;;
11837;SDS011;5978;51.020;6.764;2022-07-18T00:27:02;6.47;;;3.27;;
11837;SDS011;5978;51.020;6.764;2022-07-18T00:29:33;7.53;;;2.90;;
11837;SDS011;5978;51.020;6.764;2022-07-18T00:32:02;4.00;;;2.80;;
11837;SDS011;5978;51.020;6.764;2022-07-18T00:34:29;6.57;;;2.97;;
11837;SDS011;5978;51.020;6.764;2022-07-18T00:36:58;3.30;;;2.60;;
11837;SDS011;5978;51.020;6.764;2022-07-18T00:39:27;4.23;;;2.70;;
11837;SDS011;5978;51.020;6.764;2022-07-18T00:41:56;7.23;;;2.60;;
11837;SDS011;5978;51.020;6.764;2022-07-18T00:44:23;9.93;;;3.50;;
11837;SDS011;5978;51.020;6.764;2022-07-18T00:46:51;6.80;;;4.10;;
11837;SDS011;5978;51.020;6.764;2022-07-18T00:49:20;3.07;;;2.50;;
11837;SDS011;5978;51.020;6.764;2022-07-18T00:51:47;7.63;;;2.37;;
11837;SDS011;5978;51.020;6.764;2022-07-18T00:54:14;5.97;;;2.60;;
11837;SDS011;5978;51.020;6.764;2022-07-18T00:56:43;3.87;;;2.77;;
11837;SDS011;5978;51.020;6.764;2022-07-18T00:59:10;13.03;;;3.23;;
11837;SDS011;5978;51.020;6.764;2022-07-18T01:01:40;6.87;;;2.97;;
11837;SDS011;5978;51.020;6.764;2022-07-18T01:04:13;3.33;;;2.67;;
11837;SDS011;5978;51.020;6.764;2022-07-18T01:06:42;5.33;;;2.90;;
11837;SDS011;5978;51.020;6.764;2022-07-18T01:09:14;5.47;;;3.10;;
11837;SDS011;5978;51.020;6.764;2022-07-18T01:11:43;4.50;;;2.73;;
11837;SDS011;5978;51.020;6.764;2022-07-18T01:14:11;6.50;;;3.10;;
11837;SDS011;5978;51.020;6.764;2022-07-18T01:16:37;6.27;;;3.40;;
11837;SDS011;5978;51.020;6.764;2022-07-18T01:19:04;6.20;;;3.70;;
11837;SDS011;5978;51.020;6.764;2022-07-18T01:21:32;2.93;;;2.50;;
11837;SDS011;5978;51.020;6.764;2022-07-18T01:24:02;7.03;;;3.33;;
11837;SDS011;5978;51.020;6.764;2022-07-18T01:26:31;5.50;;;2.93;;
11837;SDS011;5978;51.020;6.764;2022-07-18T01:28:59;5.70;;;2.77;;
11837;SDS011;5978;51.020;6.764;2022-07-18T01:31:25;5.30;;;3.10;;
11837;SDS011;5978;51.020;6.764;2022-07-18T01:33:55;4.30;;;2.83;;
11837;SDS011;5978;51.020;6.764;2022-07-18T01:36:24;4.20;;;3.20;;
11837;SDS011;5978;51.020;6.764;2022-07-18T01:38:50;4.83;;;2.80;;
11837;SDS011;5978;51.020;6.764;2022-07-18T01:41:16;11.20;;;3.80;;
11837;SDS011;5978;51.020;6.764;2022-07-18T01:43:45;4.43;;;2.40;;
11837;SDS011;5978;51.020;6.764;2022-07-18T01:46:13;6.30;;;3.13;;
11837;SDS011;5978;51.020;6.764;2022-07-18T01:48:40;4.57;;;2.90;;
11837;SDS011;5978;51.020;6.764;2022-07-18T01:51:06;3.17;;;2.40;;
11837;SDS011;5978;51.020;6.764;2022-07-18T01:53:36;13.60;;;2.73;;
11837;SDS011;5978;51.020;6.764;2022-07-18T01:56:06;3.67;;;2.90;;
11837;SDS011;5978;51.020;6.764;2022-07-18T01:58:33;4.30;;;2.30;;
11837;SDS011;5978;51.020;6.764;2022-07-18T02:00:59;4.53;;;3.07;;
11837;SDS011;5978;51.020;6.764;2022-07-18T02:03:28;4.53;;;3.10;;
11837;SDS011;5978;51.020;6.764;2022-07-18T02:05:54;4.10;;;2.40;;
11837;SDS011;5978;51.020;6.764;2022-07-18T02:08:20;5.17;;;4.30;;
11837;SDS011;5978;51.020;6.764;2022-07-18T02:10:49;2.80;;;2.40;;
11837;SDS011;5978;51.020;6.764;2022-07-18T02:13:15;4.53;;;2.93;;
11837;SDS011;5978;51.020;6.764;2022-07-18T02:15:42;4.27;;;2.67;;
11837;SDS011;5978;51.020;6.764;2022-07-18T02:18:08;4.17;;;2.93;;
11837;SDS011;5978;51.020;6.764;2022-07-18T02:20:35;3.50;;;2.97;;
11837;SDS011;5978;51.020;6.764;2022-07-18T02:23:04;6.63;;;2.60;;
11837;SDS011;5978;51.020;6.764;2022-07-18T02:25:33;5.43;;;2.70;;
11837;SDS011;5978;51.020;6.764;2022-07-18T02:28:00;3.47;;;3.07;;
11837;SDS011;5978;51.020;6.764;2022-07-18T02:30:26;3.37;;;2.80;;
11837;SDS011;5978;51.020;6.764;2022-07-18T02:32:52;4.80;;;2.87;;
11837;SDS011;5978;51.020;6.764;2022-07-18T02:35:20;3.40;;;2.97;;
11837;SDS011;5978;51.020;6.764;2022-07-18T02:37:46;5.10;;;3.20;;
11837;SDS011;5978;51.020;6.764;2022-07-18T02:40:12;4.90;;;2.93;;
11837;SDS011;5978;51.020;6.764;2022-07-18T02:42:38;3.30;;;2.87;;
11837;SDS011;5978;51.020;6.764;2022-07-18T02:45:09;4.70;;;3.17;;
11837;SDS011;5978;51.020;6.764;2022-07-18T02:47:35;3.50;;;2.83;;
11837;SDS011;5978;51.020;6.764;2022-07-18T02:50:01;8.23;;;3.00;;
11837;SDS011;5978;51.020;6.764;2022-07-18T02:52:30;4.40;;;2.90;;
11837;SDS011;5978;51.020;6.764;2022-07-18T02:54:56;3.60;;;2.67;;
11837;SDS011;5978;51.020;6.764;2022-07-18T02:57:25;3.33;;;2.43;;
11837;SDS011;5978;51.020;6.764;2022-07-18T02:59:54;4.47;;;2.50;;
11837;SDS011;5978;51.020;6.764;2022-07-18T03:02:23;5.33;;;2.67;;
11837;SDS011;5978;51.020;6.764;2022-07-18T03:04:52;2.40;;;2.20;;
11837;SDS011;5978;51.020;6.764;2022-07-18T03:07:18;9.53;;;2.83;;
11837;SDS011;5978;51.020;6.764;2022-07-18T03:09:44;3.00;;;2.70;;
11837;SDS011;5978;51.020;6.764;2022-07-18T03:12:13;5.83;;;2.90;;
11837;SDS011;5978;51.020;6.764;2022-07-18T03:14:39;9.33;;;3.37;;
11837;SDS011;5978;51.020;6.764;2022-07-18T03:17:06;6.77;;;2.90;;
11837;SDS011;5978;51.020;6.764;2022-07-18T03:19:32;4.53;;;3.00;;
11837;SDS011;5978;51.020;6.764;2022-07-18T03:21:59;5.70;;;3.57;;
11837;SDS011;5978;51.020;6.764;2022-07-18T03:24:30;5.73;;;3.07;;
11837;SDS011;5978;51.020;6.764;2022-07-18T03:27:00;7.13;;;3.60;;
11837;SDS011;5978;51.020;6.764;2022-07-18T03:29:29;6.03;;;3.80;;
11837;SDS011;5978;51.020;6.764;2022-07-18T03:31:55;4.27;;;3.50;;
11837;SDS011;5978;51.020;6.764;2022-07-18T03:34:27;7.33;;;3.40;;
11837;SDS011;5978;51.020;6.764;2022-07-18T03:37:01;6.23;;;3.90;;
11837;SDS011;5978;51.020;6.764;2022-07-18T03:39:29;7.37;;;3.80;;
11837;SDS011;5978;51.020;6.764;2022-07-18T03:41:56;3.87;;;3.47;;
11837;SDS011;5978;51.020;6.764;2022-07-18T03:44:25;9.27;;;3.37;;
11837;SDS011;5978;51.020;6.764;2022-07-18T03:46:56;4.60;;;3.60;;
11837;SDS011;5978;51.020;6.764;2022-07-18T03:49:22;5.73;;;3.50;;
11837;SDS011;5978;51.020;6.764;2022-07-18T03:51:51;5.53;;;3.53;;
11837;SDS011;5978;51.020;6.764;2022-07-18T03:54:20;6.70;;;3.60;;
11837;SDS011;5978;51.020;6.764;2022-07-18T03:56:50;4.27;;;3.77;;
11837;SDS011;5978;51.020;6.764;2022-07-18T03:59:18;4.27;;;3.00;;
11837;SDS011;5978;51.020;6.764;2022-07-18T04:01:45;7.80;;;4.20;;
11837;SDS011;5978;51.020;6.764;2022-07-18T04:04:15;7.53;;;3.70;;
11837;SDS011;5978;51.020;6.764;2022-07-18T04:06:46;10.17;;;4.00;;
11837;SDS011;5978;51.020;6.764;2022-07-18T04:09:13;6.37;;;4.00;;
11837;SDS011;5978;51.020;6.764;2022-07-18T04:11:39;4.33;;;3.30;;
11837;SDS011;5978;51.020;6.764;2022-07-18T04:14:05;8.77;;;3.60;;
11837;SDS011;5978;51.020;6.764;2022-07-18T04:16:31;4.97;;;4.00;;
11837;SDS011;5978;51.020;6.764;2022-07-18T04:18:58;4.63;;;4.00;;
11837;SDS011;5978;51.020;6.764;2022-07-18T04:21:28;6.53;;;3.70;;
11837;SDS011;5978;51.020;6.764;2022-07-18T04:23:54;5.20;;;4.17;;
11837;SDS011;5978;51.020;6.764;2022-07-18T04:26:23;3.60;;;3.30;;
11837;SDS011;5978;51.020;6.764;2022-07-18T04:28:52;6.63;;;4.27;;
11837;SDS011;5978;51.020;6.764;2022-07-18T04:31:18;6.40;;;3.30;;
11837;SDS011;5978;51.020;6.764;2022-07-18T04:33:44;3.90;;;3.50;;
11837;SDS011;5978;51.020;6.764;2022-07-18T04:36:10;4.47;;;3.60;;
11837;SDS011;5978;51.020;6.764;2022-07-18T04:38:39;8.33;;;4.33;;
11837;SDS011;5978;51.020;6.764;2022-07-18T04:41:05;5.30;;;4.20;;
11837;SDS011;5978;51.020;6.764;2022-07-18T04:43:36;6.83;;;3.90;;
11837;SDS011;5978;51.020;6.764;2022-07-18T04:46:03;6.30;;;4.10;;
11837;SDS011;5978;51.020;6.764;2022-07-18T04:48:29;7.30;;;3.90;;
11837;SDS011;5978;51.020;6.764;2022-07-18T04:50:58;4.07;;;3.67;;
11837;SDS011;5978;51.020;6.764;2022-07-18T04:53:27;6.43;;;3.70;;
11837;SDS011;5978;51.020;6.764;2022-07-18T04:55:56;9.13;;;4.30;;
11837;SDS011;5978;51.020;6.764;2022-07-18T04:58:27;8.00;;;3.60;;
11837;SDS011;5978;51.020;6.764;2022-07-18T05:00:55;7.80;;;4.00;;
11837;SDS011;5978;51.020;6.764;2022-07-18T05:03:23;5.13;;;3.37;;
11837;SDS011;5978;51.020;6.764;2022-07-18T05:05:49;9.10;;;4.00;;
11837;SDS011;5978;51.020;6.764;2022-07-18T05:08:15;10.97;;;4.57;;
11837;SDS011;5978;51.020;6.764;2022-07-18T05:10:41;10.40;;;3.50;;
11837;SDS011;5978;51.020;6.764;2022-07-18T05:13:10;4.30;;;3.40;;
11837;SDS011;5978;51.020;6.764;2022-07-18T05:15:36;5.40;;;3.20;;
11837;SDS011;5978;51.020;6.764;2022-07-18T05:18:02;5.63;;;2.80;;
11837;SDS011;5978;51.020;6.764;2022-07-18T05:20:28;9.43;;;3.47;;
11837;SDS011;5978;51.020;6.764;2022-07-18T05:22:59;3.20;;;2.93;;
11837;SDS011;5978;51.020;6.764;2022-07-18T05:25:28;5.40;;;2.97;;
11837;SDS011;5978;51.020;6.764;2022-07-18T05:27:57;3.40;;;2.43;;
11837;SDS011;5978;51.020;6.764;2022-07-18T05:30:23;2.67;;;2.47;;
11837;SDS011;5978;51.020;6.764;2022-07-18T05:32:50;3.20;;;2.50;;
11837;SDS011;5978;51.020;6.764;2022-07-18T05:35:17;2.73;;;2.50;;
11837;SDS011;5978;51.020;6.764;2022-07-18T05:37:43;4.83;;;2.03;;
11837;SDS011;5978;51.020;6.764;2022-07-18T05:40:10;4.90;;;2.53;;
11837;SDS011;5978;51.020;6.764;2022-07-18T05:42:37;3.50;;;2.20;;
11837;SDS011;5978;51.020;6.764;2022-07-18T05:45:04;3.93;;;2.47;;
11837;SDS011;5978;51.020;6.764;2022-07-18T05:47:33;3.20;;;2.80;;
11837;SDS011;5978;51.020;6.764;2022-07-18T05:50:00;7.00;;;2.77;;
11837;SDS011;5978;51.020;6.764;2022-07-18T05:52:26;5.20;;;2.70;;
11837;SDS011;5978;51.020;6.764;2022-07-18T05:54:52;5.00;;;2.67;;
11837;SDS011;5978;51.020;6.764;2022-07-18T05:57:17;3.57;;;2.87;;
11837;SDS011;5978;51.020;6.764;2022-07-18T05:59:44;3.67;;;2.50;;
11837;SDS011;5978;51.020;6.764;2022-07-18T06:02:10;2.33;;;2.00;;
11837;SDS011;5978;51.020;6.764;2022-07-18T06:04:39;4.10;;;1.97;;
11837;SDS011;5978;51.020;6.764;2022-07-18T06:07:05;10.23;;;2.20;;
11837;SDS011;5978;51.020;6.764;2022-07-18T06:09:31;7.73;;;2.47;;
11837;SDS011;5978;51.020;6.764;2022-07-18T06:11:57;5.20;;;2.13;;
11837;SDS011;5978;51.020;6.764;2022-07-18T06:14:26;4.20;;;2.33;;
11837;SDS011;5978;51.020;6.764;2022-07-18T06:16:55;4.70;;;2.20;;
11837;SDS011;5978;51.020;6.764;2022-07-18T06:19:24;2.90;;;2.10;;
11837;SDS011;5978;51.020;6.764;2022-07-18T06:21:50;2.27;;;2.07;;
11837;SDS011;5978;51.020;6.764;2022-07-18T06:24:16;4.00;;;2.63;;
11837;SDS011;5978;51.020;6.764;2022-07-18T06:26:42;3.63;;;2.20;;
11837;SDS011;5978;51.020;6.764;2022-07-18T06:29:08;3.13;;;2.67;;
11837;SDS011;5978;51.020;6.764;2022-07-18T06:31:36;5.03;;;2.40;;
11837;SDS011;5978;51.020;6.764;2022-07-18T06:34:02;3.40;;;2.10;;
11837;SDS011;5978;51.020;6.764;2022-07-18T06:36:28;5.20;;;2.30;;
11837;SDS011;5978;51.020;6.764;2022-07-18T06:38:54;2.57;;;2.30;;
11837;SDS011;5978;51.020;6.764;2022-07-18T06:41:20;4.27;;;2.23;;
11837;SDS011;5978;51.020;6.764;2022-07-18T06:43:45;2.20;;;1.77;;
11837;SDS011;5978;51.020;6.764;2022-07-18T06:46:11;9.60;;;2.10;;
11837;SDS011;5978;51.020;6.764;2022-07-18T06:48:37;2.80;;;1.80;;
11837;SDS011;5978;51.020;6.764;2022-07-18T06:51:04;2.47;;;1.50;;
11837;SDS011;5978;51.020;6.764;2022-07-18T06:53:30;4.80;;;2.37;;
11837;SDS011;5978;51.020;6.764;2022-07-18T06:55:57;11.50;;;2.43;;
11837;SDS011;5978;51.020;6.764;2022-07-18T06:58:23;4.10;;;2.10;;
11837;SDS011;5978;51.020;6.764;2022-07-18T07:00:49;5.40;;;1.90;;
11837;SDS011;5978;51.020;6.764;2022-07-18T07:03:15;3.30;;;2.17;;
11837;SDS011;5978;51.020;6.764;2022-07-18T07:05:41;4.63;;;2.30;;
11837;SDS011;5978;51.020;6.764;2022-07-18T07:08:06;6.77;;;2.30;;
11837;SDS011;5978;51.020;6.764;2022-07-18T07:10:32;2.73;;;2.50;;
11837;SDS011;5978;51.020;6.764;2022-07-18T07:12:58;3.70;;;2.00;;
11837;SDS011;5978;51.020;6.764;2022-07-18T07:15:24;3.50;;;1.90;;
11837;SDS011;5978;51.020;6.764;2022-07-18T07:17:50;5.73;;;1.93;;
11837;SDS011;5978;51.020;6.764;2022-07-18T07:20:17;9.83;;;2.00;;
11837;SDS011;5978;51.020;6.764;2022-07-18T07:22:47;5.43;;;2.93;;
11837;SDS011;5978;51.020;6.764;2022-07-18T07:25:15;5.23;;;2.30;;
11837;SDS011;5978;51.020;6.764;2022-07-18T07:27:42;6.93;;;2.43;;
11837;SDS011;5978;51.020;6.764;2022-07-18T07:30:08;4.83;;;2.10;;
11837;SDS011;5978;51.020;6.764;2022-07-18T07:32:35;4.40;;;2.13;;
11837;SDS011;5978;51.020;6.764;2022-07-18T07:35:05;3.60;;;2.30;;
11837;SDS011;5978;51.020;6.764;2022-07-18T07:37:35;3.80;;;2.10;;
11837;SDS011;5978;51.020;6.764;2022-07-18T07:40:01;4.90;;;2.10;;
11837;SDS011;5978;51.020;6.764;2022-07-18T07:42:27;3.13;;;2.27;;
11837;SDS011;5978;51.020;6.764;2022-07-18T07:44:53;3.07;;;2.10;;
11837;SDS011;5978;51.020;6.764;2022-07-18T07:47:19;5.67;;;2.40;;
11837;SDS011;5978;51.020;6.764;2022-07-18T07:49:44;3.83;;;2.10;;
11837;SDS011;5978;51.020;6.764;2022-07-18T07:52:10;3.60;;;1.80;;
11837;SDS011;5978;51.020;6.764;2022-07-18T07:54:41;2.60;;;1.63;;
11837;SDS011;5978;51.020;6.764;2022-07-18T07:57:09;12.30;;;2.80;;
11837;SDS011;5978;51.020;6.764;2022-07-18T07:59:34;6.23;;;2.20;;
11837;SDS011;5978;51.020;6.764;2022-07-18T08:02:00;6.37;;;2.00;;
11837;SDS011;5978;51.020;6.764;2022-07-18T08:04:26;6.27;;;1.90;;
11837;SDS011;5978;51.020;6.764;2022-07-18T08:06:51;3.40;;;1.97;;
11837;SDS011;5978;51.020;6.764;2022-07-18T08:09:17;3.77;;;2.00;;
11837;SDS011;5978;51.020;6.764;2022-07-18T08:11:44;2.93;;;2.30;;
11837;SDS011;5978;51.020;6.764;2022-07-18T08:14:09;7.60;;;2.80;;
11837;SDS011;5978;51.020;6.764;2022-07-18T08:16:35;2.60;;;1.83;;
11837;SDS011;5978;51.020;6.764;2022-07-18T08:19:01;3.90;;;2.20;;
11837;SDS011;5978;51.020;6.764;2022-07-18T08:21:27;3.30;;;2.23;;
11837;SDS011;5978;51.020;6.764;2022-07-18T08:23:52;7.13;;;2.50;;
11837;SDS011;5978;51.020;6.764;2022-07-18T08:26:18;4.80;;;2.70;;
11837;SDS011;5978;51.020;6.764;2022-07-18T08:28:44;3.50;;;1.87;;
11837;SDS011;5978;51.020;6.764;2022-07-18T08:31:10;3.87;;;2.67;;
11837;SDS011;5978;51.020;6.764;2022-07-18T08:33:35;3.83;;;2.13;;
11837;SDS011;5978;51.020;6.764;2022-07-18T08:36:01;8.87;;;2.07;;
11837;SDS011;5978;51.020;6.764;2022-07-18T08:38:27;5.70;;;2.73;;
11837;SDS011;5978;51.020;6.764;2022-07-18T08:40:53;4.97;;;1.57;;
11837;SDS011;5978;51.020;6.764;2022-07-18T08:43:20;6.93;;;2.33;;
11837;SDS011;5978;51.020;6.764;2022-07-18T08:45:46;3.83;;;2.10;;
11837;SDS011;5978;51.020;6.764;2022-07-18T08:48:13;5.37;;;1.90;;
11837;SDS011;5978;51.020;6.764;2022-07-18T08:50:46;6.63;;;2.67;;
11837;SDS011;5978;51.020;6.764;2022-07-18T08:53:13;3.90;;;1.70;;
11837;SDS011;5978;51.020;6.764;2022-07-18T08:55:40;5.90;;;2.57;;
11837;SDS011;5978;51.020;6.764;2022-07-18T08:58:05;6.20;;;2.20;;
11837;SDS011;5978;51.020;6.764;2022-07-18T09:00:33;5.80;;;2.70;;
11837;SDS011;5978;51.020;6.764;2022-07-18T09:03:00;4.87;;;2.23;;
11837;SDS011;5978;51.020;6.764;2022-07-18T09:05:27;3.57;;;2.03;;
11837;SDS011;5978;51.020;6.764;2022-07-18T09:08:06;5.10;;;1.93;;
11837;SDS011;5978;51.020;6.764;2022-07-18T09:11:08;6.70;;;2.47;;
11837;SDS011;5978;51.020;6.764;2022-07-18T09:16:03;3.27;;;1.70;;
11837;SDS011;5978;51.020;6.764;2022-07-18T09:18:40;6.87;;;2.27;;
11837;SDS011;5978;51.020;6.764;2022-07-18T09:23:40;3.23;;;2.10;;
11837;SDS011;5978;51.020;6.764;2022-07-18T09:26:08;4.10;;;1.70;;
11837;SDS011;5978;51.020;6.764;2022-07-18T09:28:56;8.53;;;2.27;;
11837;SDS011;5978;51.020;6.764;2022-07-18T09:31:22;12.00;;;2.87;;
11837;SDS011;5978;51.020;6.764;2022-07-18T09:33:56;2.73;;;2.17;;
11837;SDS011;5978;51.020;6.764;2022-07-18T09:36:24;2.50;;;2.00;;
11837;SDS011;5978;51.020;6.764;2022-07-18T09:38:50;3.90;;;1.93;;
11837;SDS011;5978;51.020;6.764;2022-07-18T09:41:21;4.50;;;2.07;;
11837;SDS011;5978;51.020;6.764;2022-07-18T09:43:51;4.40;;;2.10;;
11837;SDS011;5978;51.020;6.764;2022-07-18T09:46:17;10.50;;;2.20;;
11837;SDS011;5978;51.020;6.764;2022-07-18T09:48:42;4.03;;;2.10;;
11837;SDS011;5978;51.020;6.764;2022-07-18T09:51:08;3.67;;;2.37;;
11837;SDS011;5978;51.020;6.764;2022-07-18T09:53:36;4.90;;;1.70;;
11837;SDS011;5978;51.020;6.764;2022-07-18T09:56:08;4.10;;;2.53;;
11837;SDS011;5978;51.020;6.764;2022-07-18T09:58:36;3.10;;;2.10;;
11837;SDS011;5978;51.020;6.764;2022-07-18T10:01:03;3.27;;;1.90;;
11837;SDS011;5978;51.020;6.764;2022-07-18T10:03:30;2.33;;;2.00;;
11837;SDS011;5978;51.020;6.764;2022-07-18T10:05:56;10.00;;;1.60;;
11837;SDS011;5978;51.020;6.764;2022-07-18T10:08:24;3.00;;;1.63;;
11837;SDS011;5978;51.020;6.764;2022-07-18T10:10:51;7.53;;;2.17;;
11837;SDS011;5978;51.020;6.764;2022-07-18T10:13:19;3.07;;;2.07;;
11837;SDS011;5978;51.020;6.764;2022-07-18T10:15:47;2.20;;;2.00;;
11837;SDS011;5978;51.020;6.764;2022-07-18T10:18:16;8.00;;;1.70;;
11837;SDS011;5978;51.020;6.764;2022-07-18T10:23:31;3.53;;;2.17;;
11837;SDS011;5978;51.020;6.764;2022-07-18T10:26:06;5.10;;;2.30;;
11837;SDS011;5978;51.020;6.764;2022-07-18T10:31:21;5.37;;;2.20;;
11837;SDS011;5978;51.020;6.764;2022-07-18T10:33:51;3.73;;;1.87;;
11837;SDS011;5978;51.020;6.764;2022-07-18T10:36:20;5.40;;;1.73;;
11837;SDS011;5978;51.020;6.764;2022-07-18T10:39:06;3.43;;;2.00;;
11837;SDS011;5978;51.020;6.764;2022-07-18T10:57:30;2.20;;;1.80;;
11837;SDS011;5978;51.020;6.764;2022-07-18T11:00:06;2.10;;;1.90;;
11837;SDS011;5978;51.020;6.764;2022-07-18T11:15:54;2.13;;;1.90;;
11837;SDS011;5978;51.020;6.764;2022-07-18T11:18:33;2.53;;;1.70;;
11837;SDS011;5978;51.020;6.764;2022-07-18T11:23:49;2.50;;;1.80;;
11837;SDS011;5978;51.020;6.764;2022-07-18T11:26:17;3.93;;;2.43;;
11837;SDS011;5978;51.020;6.764;2022-07-18T11:28:45;2.90;;;1.77;;
11837;SDS011;5978;51.020;6.764;2022-07-18T11:31:14;2.47;;;1.80;;
11837;SDS011;5978;51.020;6.764;2022-07-18T11:33:43;2.07;;;1.57;;
11837;SDS011;5978;51.020;6.764;2022-07-18T11:36:11;3.10;;;1.77;;
11837;SDS011;5978;51.020;6.764;2022-07-18T11:38:39;4.00;;;1.87;;
11837;SDS011;5978;51.020;6.764;2022-07-18T11:41:15;2.20;;;1.77;;
11837;SDS011;5978;51.020;6.764;2022-07-18T11:43:45;7.93;;;2.33;;
11837;SDS011;5978;51.020;6.764;2022-07-18T11:46:14;5.40;;;1.97;;
11837;SDS011;5978;51.020;6.764;2022-07-18T11:48:42;2.07;;;1.73;;
11837;SDS011;5978;51.020;6.764;2022-07-18T11:51:10;4.90;;;1.87;;
11837;SDS011;5978;51.020;6.764;2022-07-18T11:56:10;3.73;;;1.90;;
11837;SDS011;5978;51.020;6.764;2022-07-18T11:58:36;4.80;;;1.80;;
11837;SDS011;5978;51.020;6.764;2022-07-18T12:01:03;2.10;;;1.87;;
11837;SDS011;5978;51.020;6.764;2022-07-18T12:03:29;2.70;;;1.73;;
11837;SDS011;5978;51.020;6.764;2022-07-18T12:05:55;3.93;;;1.83;;
11837;SDS011;5978;51.020;6.764;2022-07-18T12:25:07;4.77;;;1.80;;
11837;SDS011;5978;51.020;6.764;2022-07-18T12:32:45;3.00;;;2.03;;
11837;SDS011;5978;51.020;6.764;2022-07-18T12:43:10;3.13;;;1.87;;
11837;SDS011;5978;51.020;6.764;2022-07-18T12:46:00;2.50;;;2.10;;
11837;SDS011;5978;51.020;6.764;2022-07-18T12:48:27;2.70;;;2.17;;
11837;SDS011;5978;51.020;6.764;2022-07-18T12:50:55;2.70;;;2.03;;
11837;SDS011;5978;51.020;6.764;2022-07-18T12:53:22;2.03;;;1.83;;
11837;SDS011;5978;51.020;6.764;2022-07-18T12:55:48;3.57;;;2.00;;
11837;SDS011;5978;51.020;6.764;2022-07-18T12:58:14;6.33;;;2.10;;
11837;SDS011;5978;51.020;6.764;2022-07-18T13:00:39;3.37;;;1.90;;
11837;SDS011;5978;51.020;6.764;2022-07-18T13:03:05;11.93;;;2.53;;
11837;SDS011;5978;51.020;6.764;2022-07-18T13:05:31;6.60;;;1.67;;
11837;SDS011;5978;51.020;6.764;2022-07-18T13:07:56;2.87;;;2.20;;
11837;SDS011;5978;51.020;6.764;2022-07-18T13:10:22;5.53;;;1.40;;
11837;SDS011;5978;51.020;6.764;2022-07-18T13:12:48;2.30;;;1.80;;
11837;SDS011;5978;51.020;6.764;2022-07-18T13:15:14;3.30;;;1.87;;
11837;SDS011;5978;51.020;6.764;2022-07-18T13:17:40;2.60;;;1.87;;
11837;SDS011;5978;51.020;6.764;2022-07-18T13:20:05;3.80;;;1.60;;
11837;SDS011;5978;51.020;6.764;2022-07-18T13:22:31;2.60;;;1.57;;
11837;SDS011;5978;51.020;6.764;2022-07-18T13:25:03;7.73;;;2.20;;
11837;SDS011;5978;51.020;6.764;2022-07-18T13:27:33;3.00;;;2.00;;
11837;SDS011;5978;51.020;6.764;2022-07-18T13:29:59;6.23;;;2.07;;
11837;SDS011;5978;51.020;6.764;2022-07-18T13:32:26;6.80;;;1.90;;
11837;SDS011;5978;51.020;6.764;2022-07-18T13:34:53;4.07;;;1.80;;
11837;SDS011;5978;51.020;6.764;2022-07-18T13:37:18;2.47;;;1.97;;
11837;SDS011;5978;51.020;6.764;2022-07-18T13:39:44;2.73;;;1.67;;
11837;SDS011;5978;51.020;6.764;2022-07-18T13:42:10;3.63;;;1.93;;
11837;SDS011;5978;51.020;6.764;2022-07-18T13:44:35;2.53;;;2.33;;
11837;SDS011;5978;51.020;6.764;2022-07-18T13:47:01;2.63;;;1.80;;
11837;SDS011;5978;51.020;6.764;2022-07-18T13:49:27;3.47;;;2.30;;
11837;SDS011;5978;51.020;6.764;2022-07-18T13:51:52;3.93;;;1.93;;
11837;SDS011;5978;51.020;6.764;2022-07-18T13:54:18;7.33;;;2.13;;
11837;SDS011;5978;51.020;6.764;2022-07-18T13:56:44;7.80;;;1.90;;
11837;SDS011;5978;51.020;6.764;2022-07-18T13:59:10;3.03;;;2.60;;
11837;SDS011;5978;51.020;6.764;2022-07-18T14:01:36;9.07;;;1.87;;
11837;SDS011;5978;51.020;6.764;2022-07-18T14:04:01;6.60;;;1.87;;
11837;SDS011;5978;51.020;6.764;2022-07-18T14:06:27;11.30;;;2.50;;
11837;SDS011;5978;51.020;6.764;2022-07-18T14:08:53;5.60;;;2.37;;
11837;SDS011;5978;51.020;6.764;2022-07-18T14:11:18;2.93;;;1.83;;
11837;SDS011;5978;51.020;6.764;2022-07-18T14:13:44;3.53;;;2.13;;
11837;SDS011;5978;51.020;6.764;2022-07-18T14:16:12;4.90;;;2.20;;
11837;SDS011;5978;51.020;6.764;2022-07-18T14:18:38;3.92;;;2.55;;
11837;SDS011;5978;51.020;6.764;2022-07-18T14:21:03;7.55;;;2.13;;
11837;SDS011;5978;51.020;6.764;2022-07-18T14:23:29;5.30;;;2.33;;
11837;SDS011;5978;51.020;6.764;2022-07-18T14:25:55;2.00;;;1.75;;
11837;SDS011;5978;51.020;6.764;2022-07-18T14:28:20;5.30;;;1.60;;
11837;SDS011;5978;51.020;6.764;2022-07-18T14:30:46;9.20;;;1.93;;
11837;SDS011;5978;51.020;6.764;2022-07-18T14:33:11;3.87;;;2.03;;
11837;SDS011;5978;51.020;6.764;2022-07-18T14:35:37;5.70;;;2.60;;
11837;SDS011;5978;51.020;6.764;2022-07-18T14:38:03;6.07;;;2.10;;
11837;SDS011;5978;51.020;6.764;2022-07-18T14:40:30;3.20;;;1.97;;
11837;SDS011;5978;51.020;6.764;2022-07-18T14:42:55;6.13;;;2.00;;
11837;SDS011;5978;51.020;6.764;2022-07-18T14:45:21;5.37;;;2.00;;
11837;SDS011;5978;51.020;6.764;2022-07-18T14:47:47;4.38;;;1.90;;
11837;SDS011;5978;51.020;6.764;2022-07-18T14:50:12;3.67;;;1.77;;
11837;SDS011;5978;51.020;6.764;2022-07-18T14:52:39;1.55;;;1.45;;
11837;SDS011;5978;51.020;6.764;2022-07-18T14:55:05;1.77;;;1.65;;
11837;SDS011;5978;51.020;6.764;2022-07-18T14:57:31;5.55;;;2.15;;
11837;SDS011;5978;51.020;6.764;2022-07-18T14:59:57;7.30;;;2.05;;
11837;SDS011;5978;51.020;6.764;2022-07-18T15:02:23;2.97;;;2.03;;
11837;SDS011;5978;51.020;6.764;2022-07-18T15:04:48;10.10;;;2.42;;
11837;SDS011;5978;51.020;6.764;2022-07-18T15:07:14;3.05;;;1.90;;
11837;SDS011;5978;51.020;6.764;2022-07-18T15:09:40;3.33;;;1.70;;
11837;SDS011;5978;51.020;6.764;2022-07-18T15:12:05;3.25;;;1.98;;
11837;SDS011;5978;51.020;6.764;2022-07-18T15:14:32;9.53;;;2.17;;
11837;SDS011;5978;51.020;6.764;2022-07-18T15:16:59;3.83;;;1.80;;
11837;SDS011;5978;51.020;6.764;2022-07-18T15:19:24;4.80;;;1.70;;
11837;SDS011;5978;51.020;6.764;2022-07-18T15:21:50;5.70;;;1.73;;
11837;SDS011;5978;51.020;6.764;2022-07-18T15:24:15;3.00;;;1.50;;
11837;SDS011;5978;51.020;6.764;2022-07-18T15:26:41;3.03;;;2.30;;
11837;SDS011;5978;51.020;6.764;2022-07-18T15:29:07;4.10;;;1.73;;
11837;SDS011;5978;51.020;6.764;2022-07-18T15:31:33;4.47;;;2.30;;
11837;SDS011;5978;51.020;6.764;2022-07-18T15:33:58;3.93;;;1.90;;
11837;SDS011;5978;51.020;6.764;2022-07-18T15:36:24;5.40;;;2.10;;
11837;SDS011;5978;51.020;6.764;2022-07-18T15:38:50;3.90;;;2.30;;
11837;SDS011;5978;51.020;6.764;2022-07-18T15:41:16;4.00;;;2.07;;
11837;SDS011;5978;51.020;6.764;2022-07-18T15:43:45;4.47;;;1.67;;
11837;SDS011;5978;51.020;6.764;2022-07-18T15:46:11;3.10;;;1.70;;
11837;SDS011;5978;51.020;6.764;2022-07-18T15:48:45;3.97;;;2.17;;
11837;SDS011;5978;51.020;6.764;2022-07-18T15:51:11;3.80;;;2.80;;
11837;SDS011;5978;51.020;6.764;2022-07-18T15:53:37;2.90;;;2.00;;
11837;SDS011;5978;51.020;6.764;2022-07-18T15:56:04;5.90;;;2.10;;
11837;SDS011;5978;51.020;6.764;2022-07-18T15:58:30;3.63;;;2.10;;
11837;SDS011;5978;51.020;6.764;2022-07-18T16:00:57;2.90;;;1.70;;
11837;SDS011;5978;51.020;6.764;2022-07-18T16:03:23;4.23;;;2.00;;
11837;SDS011;5978;51.020;6.764;2022-07-18T16:05:49;2.60;;;2.07;;
11837;SDS011;5978;51.020;6.764;2022-07-18T16:08:15;2.50;;;2.00;;
11837;SDS011;5978;51.020;6.764;2022-07-18T16:10:40;3.30;;;2.00;;
11837;SDS011;5978;51.020;6.764;2022-07-18T16:13:07;4.63;;;1.90;;
11837;SDS011;5978;51.020;6.764;2022-07-18T16:15:33;4.80;;;2.00;;
11837;SDS011;5978;51.020;6.764;2022-07-18T16:17:58;5.23;;;2.03;;